ELM weather

El Marne Airport
Rionegro, Santander Department, Colombia

Public forecast

Using degrees Celsius for public forecast. Weather courtesy of forecast.io.

Closest aviation weather report (METAR) to El Marne Airport

Closest report is Palonegro Airport, 21.4 nm (39.6 km) SSE. Retrieved 2019/10/17 14:00 UTC (28 minutes ago):

SKBG 171400Z 15010KT 9999 FEW010 BKN070 22/18 A3006 WS R17

Closest aviation forecast (TAF) to El Marne Airport

Closest forecast is Palonegro Airport, 21.4 nm (39.6 km) SSE. Retrieved 2019/10/17 12:39 UTC (2 hours ago):

TAF TAF SKBG 171030Z 1712/1812 19003KT 9999 SCT014 SCT080 TEMPO 1712/1714 4000 BCFG BKN008 BECMG 1715/1717 33009KT TEMPO 1722/1802 5000 DZRA BKN014 SCT070 BECMG 1801/1803 VRB02KT TX27/1719Z TN18/1811Z